• Join FlightAware (Why Join?)
  • Login
  • US Flag 
02:00PM EDT


 

Airport Tracker/Info


-or-


 

Live Flight TrackerFlight Track Log ✈ SKW2669 ✈ 08-Jul-2013 ✈ KEUG - KLAX

Flight Track Log - Related Links

Times and Time Zones

All times are in EDT time to prevent confusion due to time zone crossing. See the SKW2669 flight status page for this flight to view local times or setup timezone preferences in your user account.

Time Position Orientation Groundspeed Altitude Reporting Facility
EDT Latitude Longitude Course Direction KTS MPH feet Rate Location/Type
05:28PM 44.1711 -123.2219 278° West 167 192 2,100  Level Seattle Center
05:29PM 44.1786 -123.2950 278° West 219 252 4,200 2,160 Climbing Seattle Center
05:30PM 44.1361 -123.3769 234° Southwest 256 295 6,500 2,280 Climbing Seattle Center
05:31PM 44.0594 -123.3767 180° South 272 313 8,900 1,980 Climbing Seattle Center
05:32PM 43.9781 -123.3778 181° South 283 326 10,600 1,260 Climbing Seattle Center
05:33PM 43.8864 -123.3739 178° South 306 352 11,500 1,140 Climbing Seattle Center
05:34PM 43.7864 -123.3708 179° South 338 389 13,000 1,320 Climbing Seattle Center
05:35PM 43.6883 -123.3672 178° South 349 402 14,300 1,260 Climbing Seattle Center
05:36PM 43.5881 -123.3642 179° South 355 409 15,700 1,200 Climbing Seattle Center
05:37PM 43.4869 -123.3606 179° South 360 414 16,800 1,020 Climbing Seattle Center
05:38PM 43.3844 -123.3572 179° South 366 421 17,800 960 Climbing Seattle Center
05:39PM 43.2789 -123.3536 179° South 375 432 18,800 960 Climbing Seattle Center
05:40PM 43.1508 -123.3439 177° South 382 440 19,800 900 Climbing Seattle Center
05:41PM 43.0464 -123.2978 162° South 392 451 20,700 780 Climbing Seattle Center
05:42PM 42.9397 -123.2594 165° South 394 453 21,500 720 Climbing Seattle Center
05:43PM 42.8325 -123.2192 165° South 398 458 22,200 540 Climbing Seattle Center
05:44PM 42.7231 -123.1775 164° South 405 466 22,700 420 Climbing Seattle Center
05:45PM 42.6194 -123.1389 165° South 413 475 23,100 420 Climbing Seattle Center
05:46PM 42.5067 -123.0964 164° South 419 482 23,600 480 Climbing Seattle Center
05:47PM 42.3961 -123.0442 161° South 422 486 24,100 540 Climbing Seattle Center
05:48PM 42.2639 -122.9769 159° South 425 489 24,800 540 Climbing Seattle Center
05:49PM 42.1536 -122.9200 159° South 426 490 25,300 480 Climbing Seattle Center
05:51PM 42.0428 -122.8653 160° South 428 493 25,800 480 Climbing Seattle Center
05:52PM 41.9328 -122.8100 159° South 426 490 26,300 480 Climbing Seattle Center
05:53PM 41.8236 -122.7567 160° South 422 486 26,800 480 Climbing Seattle Center
05:54PM 41.7128 -122.7025 160° South 426 490 27,300 480 Climbing Seattle Center
05:55PM 41.6022 -122.6481 160° South 426 490 27,800 480 Climbing Seattle Center
05:56PM 41.4917 -122.5947 160° South 425 489 28,300 480 Climbing Seattle Center
05:57PM 41.3717 -122.5361 160° South 423 487 28,800 480 Climbing Seattle Center
05:57PM 41.2831 -122.4931 160° South 419 482 29,200 480 Climbing Oakland Center
05:58PM 41.1717 -122.4406 160° South 422 486 29,700 480 Climbing Oakland Center
05:59PM 41.0619 -122.3867 160° South 421 484 30,200 480 Climbing Oakland Center
06:00PM 40.9525 -122.3328 160° South 419 482 30,700 540 Climbing Oakland Center
06:02PM 40.8231 -122.2706 160° South 413 475 31,400 540 Climbing Oakland Center
06:03PM 40.7156 -122.2181 160° South 410 472 31,900 480 Climbing Oakland Center
06:04PM 40.6075 -122.1672 160° South 411 473 32,400 480 Climbing Oakland Center
06:05PM 40.5028 -122.1156 159° South 401 461 32,900 240 Climbing Oakland Center
06:06PM 40.3953 -122.0650 160° South 406 467 33,000  Climbing Oakland Center
06:07PM 40.2844 -122.0125 160° South 418 481 33,000  Level Oakland Center
06:08PM 40.1722 -121.9597 160° South 422 486 33,000  Level Oakland Center
06:09PM 40.0597 -121.9086 161° South 425 489 33,000  Level Oakland Center
06:10PM 39.9467 -121.8556 160° South 429 494 33,000  Level Oakland Center
06:11PM 39.8333 -121.8025 160° South 432 497 33,000  Level Oakland Center
06:12PM 39.7200 -121.7503 160° South 433 498 33,000  Level Oakland Center
06:13PM 39.6064 -121.6983 161° South 433 498 33,000  Level Oakland Center
06:14PM 39.4794 -121.6389 160° South 433 498 33,000  Level Oakland Center
06:15PM 39.3656 -121.5872 161° South 435 501 33,000  Level Oakland Center
06:16PM 39.2522 -121.5361 161° South 432 497 33,000  Level Oakland Center
06:17PM 39.1386 -121.4836 160° South 433 498 33,000  Level Oakland Center
06:18PM 39.0261 -121.4322 160° South 430 495 33,000  Level Oakland Center
06:19PM 38.9119 -121.3822 161° South 431 496 33,000  Level Oakland Center
06:20PM 38.7989 -121.3314 161° South 431 496 33,000  Level Oakland Center
06:21PM 38.6722 -121.2742 161° South 433 498 33,000  Level Oakland Center
06:22PM 38.5583 -121.2208 160° South 435 501 33,000  Level Oakland Center
06:23PM 38.4453 -121.1711 161° South 431 496 33,000  Level Oakland Center
06:24PM 38.3328 -121.1244 162° South 432 497 33,000  Level Oakland Center
06:25PM 38.1967 -121.0633 161° South 430 495 33,000  Level Oakland Center
06:26PM 38.0839 -121.0139 161° South 431 496 33,000  Level Oakland Center
06:27PM 37.9708 -120.9644 161° South 428 493 33,000  Level Oakland Center
06:28PM 37.8586 -120.9142 161° South 428 493 33,000  Level Oakland Center
06:29PM 37.7456 -120.8658 161° South 428 493 33,000  Level Oakland Center
06:30PM 37.6342 -120.8103 158° South 429 494 33,000  Level Oakland Center
06:31PM 37.5222 -120.7556 159° South 430 495 33,000  Level Oakland Center
06:32PM 37.4111 -120.6986 158° South 432 497 33,000  Level Oakland Center
06:33PM 37.2986 -120.6419 158° South 435 501 33,000  Level Oakland Center
06:34PM 37.1642 -120.5719 157° South 435 501 33,000  Level Oakland Center
06:35PM 37.0511 -120.5156 158° South 437 503 33,000  Level Oakland Center
06:36PM 36.9394 -120.4572 157° South 435 501 33,000  Level Oakland Center
06:37PM 36.8242 -120.4036 160° South 439 505 33,000  Level Oakland Center
06:38PM 36.7089 -120.3456 158° South 438 504 33,000  Level Oakland Center
06:39PM 36.5950 -120.2906 159° South 440 506 33,000  Level Oakland Center
06:40PM 36.4811 -120.2342 158° South 439 505 33,000  Level Oakland Center
06:41PM 36.3667 -120.1775 158° South 440 506 33,000  Level Oakland Center
06:42PM 36.2522 -120.1217 159° South 440 506 33,000  Level Oakland Center
06:43PM 36.1378 -120.0658 158° South 441 507 33,000  Level Oakland Center
06:44PM 36.0247 -120.0108 159° South 437 503 33,000  Level Oakland Center
06:45PM 35.9111 -119.9536 158° South 438 504 33,000  Level Oakland Center
06:47PM 35.7750 -119.8881 159° South 436 502 33,000  Level Oakland Center
06:48PM 35.6606 -119.8328 159° South 437 503 33,000  Level Oakland Center
06:48PM 35.6164 -119.8122 159° South 434 499 33,000  Level Los Angeles Center
06:49PM 35.5019 -119.7578 159° South 436 502 33,000  Level Los Angeles Center
06:50PM 35.3881 -119.7031 159° South 437 503 33,000  Level Los Angeles Center
06:51PM 35.2519 -119.6350 158° South 438 504 33,000 -1,020 Level Los Angeles Center
06:52PM 35.1450 -119.5453 146° Southeast 460 529 30,900 -2,160 Descending Los Angeles Center
06:53PM 35.0367 -119.4522 145° Southeast 471 542 28,600 -2,280 Descending Los Angeles Center
06:54PM 34.9303 -119.3644 146° Southeast 465 535 26,300 -2,280 Descending Los Angeles Center
06:55PM 34.8264 -119.2772 145° Southeast 458 527 24,000 -2,280 Descending Los Angeles Center
06:56PM 34.7261 -119.1914 145° Southeast 445 512 21,700 -2,460 Descending Los Angeles Center
06:57PM 34.6200 -119.1000 145° Southeast 417 480 19,000 -2,400 Descending Los Angeles Center
06:58PM 34.5281 -119.0264 147° Southeast 395 455 16,800 -1,980 Descending Los Angeles Center
06:59PM 34.4386 -118.9500 145° Southeast 391 450 15,000 -1,800 Descending Los Angeles Center
07:00PM 34.3508 -118.8806 147° Southeast 373 429 13,200 -1,500 Descending Los Angeles Center
07:01PM 34.2533 -118.8439 163° South 365 420 12,000 -600 Descending Los Angeles Center
07:02PM 34.1575 -118.8089 163° South 281 323 12,000 -420 Level Los Angeles Center
07:04PM 34.0942 -118.7847 162° South 242 278 11,200 -900 Descending Los Angeles Center
07:05PM 34.0364 -118.7314 143° Southeast 263 303 10,200 -600 Descending Los Angeles Center
07:06PM 34.0289 -118.6511 96° East 242 278 10,000 -660 Descending Los Angeles Center
07:07PM 34.0214 -118.5719 96° East 237 273 8,900 -1,140 Descending Los Angeles Center
07:08PM 34.0125 -118.4869 97° East 237 273 7,700 -1,020 Descending Los Angeles Center
07:09PM 34.0169 -118.4244 85° East 224 258 6,800 -1,080 Descending Los Angeles Center
07:10PM 34.0283 -118.3381 81° East 219 252 5,500 -1,260 Descending Los Angeles Center
07:11PM 34.0364 -118.2664 82° East 216 249 4,200 -1,140 Descending Los Angeles Center
07:12PM 34.0300 -118.1972 96° East 222 255 3,200 -900 Descending Los Angeles Center
07:13PM 33.9819 -118.2036 186° South 200 230 2,400 -540 Descending Los Angeles Center
07:14PM 33.9669 -118.2486 248° West 187 215 2,200 -360 Descending Los Angeles Center
07:15PM 33.9628 -118.3089 265° West 163 188 1,700 -600 Descending Los Angeles Center
07:16PM 33.9575 -118.3575 263° West 138 159 1,000 -720 Descending Los Angeles Center
07:17PM 33.9528 -118.3989 262° West 129 148 300 -720 Descending Los Angeles Center
07:19PM 33.9333 -118.4000 228° Southwest  Level FlightAware Approximate
07:26PM 33.9425 -118.4081 228° Southwest  Level Estimated